ADDS METAR Data INFO
IDs: Format: Raw Decoded Include TAF

Data at: 1526 UTC 18 Jun 2018

KSRB 181515Z AUTO 25003KT 10SM CLR 29/21 A3019 RMK A01
KSRB 181455Z AUTO 34004KT 10SM CLR 28/21 A3019 RMK A01
KSRB 181435Z AUTO 28003KT 10SM CLR 28/21 A3019 RMK A01
KSRB 181415Z AUTO 00000KT 10SM CLR 27/20 A3019 RMK A01
KSRB 181355Z AUTO 00000KT 10SM CLR 27/20 A3019 RMK A01
KSRB 181335Z AUTO 25004KT 10SM CLR 27/20 A3019 RMK A01
KSRB 181315Z AUTO 00000KT 10SM CLR 26/21 A3019 RMK A01
KSRB 181255Z AUTO 19004KT 10SM CLR 26/21 A3018 RMK A01
KSRB 181235Z AUTO VRB05KT 10SM CLR 25/21 A3017 RMK A01
KSRB 181215Z AUTO 20004KT 10SM CLR 24/21 A3017 RMK A01
KSRB 181155Z AUTO 00000KT 10SM CLR 23/21 A3017 RMK A01
KSRB 181135Z AUTO 00000KT 9SM CLR 22/21 A3017 RMK A01
KSRB 181115Z AUTO 00000KT 10SM CLR 21/20 A3017 RMK A01
KSRB 181055Z AUTO 00000KT 10SM CLR 20/19 A3017 RMK A01
KSRB 181035Z AUTO 00000KT 10SM CLR 19/19 A3016 RMK A01
KSRB 181015Z AUTO 00000KT 10SM FEW050 20/19 A3016 RMK A01
KSRB 180955Z AUTO 00000KT 10SM FEW050 20/19 A3015 RMK A01
KSRB 180935Z AUTO 00000KT 10SM CLR 20/19 A3015 RMK A01
KSRB 180915Z AUTO 00000KT 10SM FEW055 20/19 A3014 RMK A01
KSRB 180855Z AUTO 21003KT 10SM SCT050 20/20 A3014 RMK A01
KSRB 180835Z AUTO 00000KT 10SM OVC050 20/19 A3014 RMK A01
KSRB 180815Z AUTO 00000KT 10SM BKN049 21/20 A3015 RMK A01
KSRB 180755Z AUTO 00000KT 10SM SCT049 SCT055 21/20 A3015 RMK A01
KSRB 180735Z AUTO 00000KT 10SM FEW050 21/20 A3014 RMK A01
KSRB 180715Z AUTO 00000KT 10SM FEW050 22/20 A3014 RMK A01
KSRB 180655Z AUTO 00000KT 10SM CLR 21/20 A3014 RMK A01
KSRB 180635Z AUTO 00000KT 10SM CLR 22/20 A3014 RMK A01
KSRB 180615Z AUTO 00000KT 9SM CLR 22/21 A3013 RMK A01
KSRB 180555Z AUTO 19004KT 3SM BR CLR 22/21 A3013 RMK A01
KSRB 180535Z AUTO 00000KT 4SM BR CLR 22/21 A3014 RMK A01
KSRB 180515Z AUTO 00000KT 10SM CLR 22/20 A3014 RMK A01
KSRB 180455Z AUTO 00000KT 10SM CLR 22/20 A3014 RMK A01
KSRB 180435Z AUTO 00000KT 10SM CLR 23/21 A3014 RMK A01
KSRB 180415Z AUTO 00000KT 10SM CLR 23/20 A3014 RMK A01
KSRB 180355Z AUTO 00000KT 10SM CLR 22/21 A3014 RMK A01
KSRB 180335Z AUTO 00000KT 10SM CLR 24/21 A3014 RMK A01
KSRB 180315Z AUTO 00000KT 10SM CLR 24/22 A3013 RMK A01
KSRB 180255Z AUTO 26003KT 10SM CLR 24/22 A3013 RMK A01
KSRB 180235Z AUTO 13003KT 10SM CLR 24/22 A3013 RMK A01
KSRB 180215Z AUTO 00000KT 10SM CLR 24/22 A3013 RMK A01
KSRB 180155Z AUTO 00000KT 10SM CLR 24/22 A3011 RMK A01
KSRB 180135Z AUTO 00000KT 10SM CLR 25/22 A3010 RMK A01
KSRB 180115Z AUTO 20004KT 10SM CLR 25/23 A3010 RMK A01
KSRB 180055Z AUTO 00000KT 10SM CLR 26/23 A3010 RMK A01
KSRB 180035Z AUTO 00000KT 10SM CLR 26/23 A3009 RMK A01
KSRB 180015Z AUTO 00000KT 10SM CLR 27/23 A3010 RMK A01
KSRB 172355Z AUTO 00000KT 10SM CLR 28/23 A3010 RMK A01
KSRB 172335Z AUTO 00000KT 10SM CLR 29/23 A3010 RMK A01
KSRB 172315Z AUTO 00000KT 10SM CLR 31/21 A3009 RMK A01
KSRB 172255Z AUTO 17005KT 10SM CLR 32/21 A3009 RMK A01
KSRB 172235Z AUTO 14004KT 10SM CLR 32/21 A3009 RMK A01
KSRB 172215Z AUTO 14006KT 10SM CLR 32/21 A3009 RMK A01
KSRB 172155Z AUTO 10004KT 10SM CLR 32/20 A3009 RMK A01
KSRB 172135Z AUTO 09006KT 10SM CLR 31/21 A3009 RMK A01
KSRB 172115Z AUTO 10005KT 10SM CLR 31/21 A3010 RMK A01
KSRB 172055Z AUTO 12006KT 10SM CLR 29/20 A3010 RMK A01
KSRB 172035Z AUTO 12007G14KT 10SM CLR 30/20 A3011 RMK A01
KSRB 172015Z AUTO 13004KT 10SM FEW055 FEW080 SCT095 32/20 A3010 RMK A01
KSRB 171955Z AUTO 02003KT 10SM FEW050 SCT065 BKN080 33/20 A3010 RMK A01
KSRB 171935Z AUTO 00000KT 10SM SCT050 BKN075 33/20 A3011 RMK A01
KSRB 171915Z AUTO VRB04KT 10SM SCT050 SCT075 33/20 A3011 RMK A01
KSRB 171855Z AUTO 00000KT 10SM CLR 33/20 A3011 RMK A01
KSRB 171835Z AUTO 00000KT 10SM FEW100 32/20 A3012 RMK A01
KSRB 171815Z AUTO 33004KT 10SM SCT044 SCT050 SCT070 31/21 A3013 RMK A01
KSRB 171755Z AUTO 20003KT 10SM CLR 32/21 A3014 RMK A01
KSRB 171735Z AUTO VRB03KT 10SM CLR 32/21 A3014 RMK A01
KSRB 171715Z AUTO 00000KT 10SM CLR 31/21 A3015 RMK A01
KSRB 171655Z AUTO VRB03KT 10SM CLR 32/21 A3015 RMK A01
KSRB 171635Z AUTO 24004KT 10SM CLR 31/21 A3015 RMK A01
KSRB 171615Z AUTO 00000KT 10SM CLR 31/21 A3015 RMK A01
KSRB 171555Z AUTO 00000KT 10SM CLR 30/21 A3015 RMK A01
KSRB 171535Z AUTO 17006KT 10SM CLR 30/21 A3015 RMK A01
KSRB 171515Z AUTO VRB05KT 9SM CLR 30/21 A3015 RMK A01
KSRB 171455Z AUTO 21006KT 10SM CLR 29/21 A3016 RMK A01
KSRB 171435Z AUTO 21007KT 10SM CLR 29/21 A3015 RMK A01
KSRB 171415Z AUTO VRB05KT 10SM CLR 28/21 A3016 RMK A01
KSRB 171355Z AUTO 16003KT 10SM CLR 28/21 A3016 RMK A01
KSRB 171335Z AUTO 16004KT 10SM CLR 27/21 A3016 RMK A01
KSRB 171315Z AUTO 16003KT 10SM CLR 27/21 A3016 RMK A01
KSRB 171255Z AUTO 20004KT 10SM CLR 26/20 A3016 RMK A01
KSRB 171235Z AUTO 16003KT 10SM CLR 25/21 A3015 RMK A01
KSRB 171215Z AUTO 00000KT 10SM CLR 23/20 A3014 RMK A01
KSRB 171155Z AUTO 00000KT 10SM CLR 23/20 A3014 RMK A01
KSRB 171135Z AUTO 00000KT 9SM CLR 21/20 A3014 RMK A01
KSRB 171115Z AUTO 00000KT 10SM CLR 20/19 A3013 RMK A01
KSRB 171055Z AUTO 00000KT 9SM CLR 19/19 A3013 RMK A01
KSRB 171035Z AUTO 00000KT 9SM CLR 19/19 A3012 RMK A01
KSRB 171015Z AUTO 00000KT 10SM CLR 19/18 A3011 RMK A01
KSRB 170955Z AUTO 00000KT 10SM CLR 19/19 A3010 RMK A01
KSRB 170935Z AUTO 00000KT 10SM CLR 19/19 A3009 RMK A01
KSRB 170915Z AUTO 00000KT 10SM CLR 20/19 A3008 RMK A01
KSRB 170855Z AUTO 00000KT 10SM FEW055 20/19 A3007 RMK A01
KSRB 170835Z AUTO 00000KT 10SM CLR 22/19 A3007 RMK A01
KSRB 170815Z AUTO 00000KT 10SM SCT055 20/19 A3006 RMK A01
KSRB 170755Z AUTO 00000KT 10SM SCT055 20/19 A3007 RMK A01
KSRB 170735Z AUTO 00000KT 10SM FEW055 FEW070 FEW110 21/19 A3006 RMK A01
KSRB 170715Z AUTO 00000KT 10SM BKN060 BKN070 BKN110 21/20 A3007 RMK A01
KSRB 170655Z AUTO 00000KT 10SM SCT060 21/20 A3007 RMK A01
KSRB 170635Z AUTO 00000KT 10SM SCT060 20/19 A3007 RMK A01
KSRB 170615Z AUTO 00000KT 10SM OVC060 20/19 A3007 RMK A01
KSRB 170555Z AUTO 00000KT 10SM SCT060 20/20 A3008 RMK A01
KSRB 170535Z AUTO 00000KT 10SM FEW050 FEW055 20/19 A3008 RMK A01
KSRB 170515Z AUTO 00000KT 10SM FEW055 21/19 A3008 RMK A01
KSRB 170455Z AUTO 00000KT 10SM BKN055 21/20 A3008 RMK A01
KSRB 170435Z AUTO 00000KT 10SM BKN055 22/20 A3008 RMK A01
KSRB 170415Z AUTO 00000KT 10SM CLR 21/20 A3008 RMK A01
KSRB 170355Z AUTO 00000KT 10SM FEW055 21/20 A3008 RMK A01
KSRB 170335Z AUTO 00000KT 10SM CLR 21/20 A3007 RMK A01